sensor_id;sensor_type;location;lat;lon;timestamp;pressure;altitude;pressure_sealevel;temperature;humidity
57374;BME280;43964;53.890;25.340;2023-05-11T00:01:48;1032.4;;;8.3;41.6
57374;BME280;43964;53.890;25.340;2023-05-11T00:06:32;1032.4;;;8.3;41.6
57374;BME280;43964;53.890;25.340;2023-05-11T00:11:34;1032.4;;;8.2;41.7
57374;BME280;43964;53.890;25.340;2023-05-11T00:17:02;1032.5;;;8.2;42.1
57374;BME280;43964;53.890;25.340;2023-05-11T00:21:56;1032.5;;;8.2;42.4
57374;BME280;43964;53.890;25.340;2023-05-11T00:26:36;1032.5;;;8.2;42.6
57374;BME280;43964;53.890;25.340;2023-05-11T00:31:52;1032.5;;;8.2;42.9
57374;BME280;43964;53.890;25.340;2023-05-11T00:36:46;1032.6;;;8.2;43
57374;BME280;43964;53.890;25.340;2023-05-11T00:41:46;1032.6;;;8.2;42.9
57374;BME280;43964;53.890;25.340;2023-05-11T00:47:02;1032.6;;;8.1;42.9
57374;BME280;43964;53.890;25.340;2023-05-11T00:51:28;1032.6;;;8.1;43
57374;BME280;43964;53.890;25.340;2023-05-11T00:56:56;1032.6;;;8;43
57374;BME280;43964;53.890;25.340;2023-05-11T01:02:04;1032.6;;;7.9;43.1
57374;BME280;43964;53.890;25.340;2023-05-11T01:06:34;1032.6;;;7.8;43.5
57374;BME280;43964;53.890;25.340;2023-05-11T01:11:27;1032.6;;;7.8;43.7
57374;BME280;43964;53.890;25.340;2023-05-11T01:16:58;1032.6;;;7.7;43.9
57374;BME280;43964;53.890;25.340;2023-05-11T01:21:54;1032.6;;;7.7;44
57374;BME280;43964;53.890;25.340;2023-05-11T01:26:33;1032.7;;;7.7;44.1
57374;BME280;43964;53.890;25.340;2023-05-11T01:31:41;1032.7;;;7.6;44.1
57374;BME280;43964;53.890;25.340;2023-05-11T01:36:53;1032.7;;;7.5;44.2
57374;BME280;43964;53.890;25.340;2023-05-11T01:42:03;1032.7;;;7.5;44.2
57374;BME280;43964;53.890;25.340;2023-05-11T01:46:24;1032.7;;;7.5;44.3
57374;BME280;43964;53.890;25.340;2023-05-11T01:52:02;1032.7;;;7.3;44.4
57374;BME280;43964;53.890;25.340;2023-05-11T01:56:49;1032.7;;;7.3;44.4
57374;BME280;43964;53.890;25.340;2023-05-11T02:01:32;1032.7;;;7.3;44.6
57374;BME280;43964;53.890;25.340;2023-05-11T02:06:32;1032.7;;;7.3;45
57374;BME280;43964;53.890;25.340;2023-05-11T02:12:04;1032.8;;;7.2;45.3
57374;BME280;43964;53.890;25.340;2023-05-11T02:16:38;1032.8;;;7.2;45.5
57374;BME280;43964;53.890;25.340;2023-05-11T02:21:52;1032.8;;;7.2;45.6
57374;BME280;43964;53.890;25.340;2023-05-11T02:27:04;1032.9;;;7.1;45.7
57374;BME280;43964;53.890;25.340;2023-05-11T02:31:24;1032.9;;;7.1;45.5
57374;BME280;43964;53.890;25.340;2023-05-11T02:36:24;1033;;;7.2;45.3
57374;BME280;43964;53.890;25.340;2023-05-11T02:41:46;1033;;;7.2;45.2
57374;BME280;43964;53.890;25.340;2023-05-11T02:46:36;1033.1;;;7.4;45
57374;BME280;43964;53.890;25.340;2023-05-11T02:51:56;1033;;;8.2;44.3
57374;BME280;43964;53.890;25.340;2023-05-11T02:56:46;1033;;;9.9;42.8
57374;BME280;43964;53.890;25.340;2023-05-11T03:01:36;1032.9;;;12.4;40
57374;BME280;43964;53.890;25.340;2023-05-11T03:06:48;1032.9;;;14.9;37.2
57374;BME280;43964;53.890;25.340;2023-05-11T03:12:02;1032.9;;;17.2;34.7
57374;BME280;43964;53.890;25.340;2023-05-11T03:16:34;1032.8;;;19.1;32.6
57374;BME280;43964;53.890;25.340;2023-05-11T03:21:24;1032.8;;;21;30.7
57374;BME280;43964;53.890;25.340;2023-05-11T03:26:24;1032.8;;;23;29.3
57374;BME280;43964;53.890;25.340;2023-05-11T03:32:06;1032.8;;;24.9;27.7
57374;BME280;43964;53.890;25.340;2023-05-11T03:36:42;1032.8;;;26.6;26.2
57374;BME280;43964;53.890;25.340;2023-05-11T03:41:24;1032.8;;;28;24.7
57374;BME280;43964;53.890;25.340;2023-05-11T03:46:34;1032.9;;;29.5;23.1
57374;BME280;43964;53.890;25.340;2023-05-11T03:51:46;1032.9;;;30.7;21.8
57374;BME280;43964;53.890;25.340;2023-05-11T03:56:34;1032.8;;;32;19.3
57374;BME280;43964;53.890;25.340;2023-05-11T04:01:48;1032.9;;;33.2;17.9
57374;BME280;43964;53.890;25.340;2023-05-11T04:07:02;1033;;;34.4;16.6
57374;BME280;43964;53.890;25.340;2023-05-11T04:11:24;1033;;;35.4;15.6
57374;BME280;43964;53.890;25.340;2023-05-11T04:16:46;1033;;;36.1;14.8
57374;BME280;43964;53.890;25.340;2023-05-11T04:21:34;1033;;;36.6;14.7
57374;BME280;43964;53.890;25.340;2023-05-11T04:26:54;1033.1;;;37.4;14.3
57374;BME280;43964;53.890;25.340;2023-05-11T04:32:02;1033.1;;;37.8;13.8
57374;BME280;43964;53.890;25.340;2023-05-11T04:36:52;1033.1;;;38.3;13.3
57374;BME280;43964;53.890;25.340;2023-05-11T04:42:02;1033.1;;;39.1;12.7
57374;BME280;43964;53.890;25.340;2023-05-11T04:47:02;1033.1;;;39.5;12.3
57374;BME280;43964;53.890;25.340;2023-05-11T04:51:28;1033.1;;;40.3;11.6
57374;BME280;43964;53.890;25.340;2023-05-11T04:57:02;1033.1;;;41.3;11
57374;BME280;43964;53.890;25.340;2023-05-11T05:01:56;1033.1;;;41.7;10.5
57374;BME280;43964;53.890;25.340;2023-05-11T05:06:30;1033;;;42.2;9.8
57374;BME280;43964;53.890;25.340;2023-05-11T05:11:32;1033.1;;;42.8;9.4
57374;BME280;43964;53.890;25.340;2023-05-11T05:17:02;1033.1;;;43.1;9.1
57374;BME280;43964;53.890;25.340;2023-05-11T05:21:46;1033.1;;;42.7;9
57374;BME280;43964;53.890;25.340;2023-05-11T05:26:48;1033.2;;;39.1;10.5
57374;BME280;43964;53.890;25.340;2023-05-11T05:32:02;1033.3;;;33.6;13.3
57374;BME280;43964;53.890;25.340;2023-05-11T05:36:32;1033.4;;;30;15
57374;BME280;43964;53.890;25.340;2023-05-11T05:41:48;1033.5;;;27.7;15.9
57374;BME280;43964;53.890;25.340;2023-05-11T05:46:46;1033.6;;;25.9;16.7
57374;BME280;43964;53.890;25.340;2023-05-11T05:51:28;1033.5;;;24.6;17.3
57374;BME280;43964;53.890;25.340;2023-05-11T05:56:56;1033.6;;;23.9;17.8
57374;BME280;43964;53.890;25.340;2023-05-11T06:01:48;1033.5;;;23.5;18.5
57374;BME280;43964;53.890;25.340;2023-05-11T06:06:24;1033.5;;;22.8;19.4
57374;BME280;43964;53.890;25.340;2023-05-11T06:11:30;1033.6;;;22.5;19.8
57374;BME280;43964;53.890;25.340;2023-05-11T06:17:04;1033.5;;;22.4;20.2
57374;BME280;43964;53.890;25.340;2023-05-11T06:21:38;1033.5;;;22.3;20.6
57374;BME280;43964;53.890;25.340;2023-05-11T06:26:42;1033.5;;;22.4;20.7
57374;BME280;43964;53.890;25.340;2023-05-11T06:31:24;1033.6;;;22.5;20.6
57374;BME280;43964;53.890;25.340;2023-05-11T06:37:02;1033.6;;;22.4;20.9
57374;BME280;43964;53.890;25.340;2023-05-11T06:41:42;1033.7;;;22.3;20.9
57374;BME280;43964;53.890;25.340;2023-05-11T06:46:24;1033.7;;;22.4;21
57374;BME280;43964;53.890;25.340;2023-05-11T06:52:02;1033.7;;;22.4;21.2
57374;BME280;43964;53.890;25.340;2023-05-11T06:56:44;1033.7;;;22.5;21.3
57374;BME280;43964;53.890;25.340;2023-05-11T07:01:34;1033.7;;;22.5;21.5
57374;BME280;43964;53.890;25.340;2023-05-11T07:06:36;1033.7;;;22.4;21.5
57374;BME280;43964;53.890;25.340;2023-05-11T07:12:02;1033.7;;;22.3;21.5
57374;BME280;43964;53.890;25.340;2023-05-11T07:16:32;1033.7;;;22.1;21.5
57374;BME280;43964;53.890;25.340;2023-05-11T07:22:02;1033.8;;;22;21.3
57374;BME280;43964;53.890;25.340;2023-05-11T07:27:02;1033.7;;;22;21.1
57374;BME280;43964;53.890;25.340;2023-05-11T07:31:34;1033.7;;;22;20.9
57374;BME280;43964;53.890;25.340;2023-05-11T07:36:24;1033.7;;;22;20.8
57374;BME280;43964;53.890;25.340;2023-05-11T07:41:54;1033.6;;;22.1;20.6
57374;BME280;43964;53.890;25.340;2023-05-11T07:46:38;1033.6;;;22;20.3
57374;BME280;43964;53.890;25.340;2023-05-11T07:52:04;1033.6;;;22;20.1
57374;BME280;43964;53.890;25.340;2023-05-11T07:56:24;1033.5;;;22.1;19.9
57374;BME280;43964;53.890;25.340;2023-05-11T08:02:04;1033.5;;;22.3;19.7
57374;BME280;43964;53.890;25.340;2023-05-11T08:06:48;1033.4;;;22.3;19.6
57374;BME280;43964;53.890;25.340;2023-05-11T08:11:34;1033.4;;;22.4;19.4
57374;BME280;43964;53.890;25.340;2023-05-11T08:16:24;1033.4;;;22.3;19.6
57374;BME280;43964;53.890;25.340;2023-05-11T08:22:04;1033.4;;;22.1;19.6
57374;BME280;43964;53.890;25.340;2023-05-11T08:26:32;1033.4;;;22;19.4
57374;BME280;43964;53.890;25.340;2023-05-11T08:31:50;1033.4;;;21.8;19.2
57374;BME280;43964;53.890;25.340;2023-05-11T08:36:54;1033.4;;;21.7;19
57374;BME280;43964;53.890;25.340;2023-05-11T08:41:42;1033.3;;;21.4;19
57374;BME280;43964;53.890;25.340;2023-05-11T08:46:46;1033.3;;;21.5;18.9
57374;BME280;43964;53.890;25.340;2023-05-11T08:51:38;1033.3;;;21.5;18.8
57374;BME280;43964;53.890;25.340;2023-05-11T08:56:39;1033.3;;;21.3;18.8
57374;BME280;43964;53.890;25.340;2023-05-11T09:02:06;1033.3;;;21.1;18.7
57374;BME280;43964;53.890;25.340;2023-05-11T09:07:06;1033.2;;;21;18.7
57374;BME280;43964;53.890;25.340;2023-05-11T09:12:00;1033.3;;;21.1;18.7
57374;BME280;43964;53.890;25.340;2023-05-11T09:16:36;1033.3;;;21.1;18.8
57374;BME280;43964;53.890;25.340;2023-05-11T09:22:00;1033.3;;;21;18.7
57374;BME280;43964;53.890;25.340;2023-05-11T09:27:04;1033.2;;;21.2;18.9
57374;BME280;43964;53.890;25.340;2023-05-11T09:31:40;1033.3;;;21.4;18.7
57374;BME280;43964;53.890;25.340;2023-05-11T09:36:54;1033.2;;;21.3;18.7
57374;BME280;43964;53.890;25.340;2023-05-11T09:42:12;1033.2;;;21.4;18.7
57374;BME280;43964;53.890;25.340;2023-05-11T09:47:09;1033.1;;;21.3;18.6
57374;BME280;43964;53.890;25.340;2023-05-11T09:51:44;1033;;;21.2;18.6
57374;BME280;43964;53.890;25.340;2023-05-11T09:57:04;1033;;;21.3;18.5
57374;BME280;43964;53.890;25.340;2023-05-11T10:02:13;1033;;;21.2;18.3
57374;BME280;43964;53.890;25.340;2023-05-11T10:06:50;1032.9;;;21.2;18.3
57374;BME280;43964;53.890;25.340;2023-05-11T10:11:34;1032.8;;;21.4;18.2
57374;BME280;43964;53.890;25.340;2023-05-11T10:17:04;1032.8;;;21.5;18.3
57374;BME280;43964;53.890;25.340;2023-05-11T10:21:44;1032.8;;;21.4;18.4
57374;BME280;43964;53.890;25.340;2023-05-11T10:26:54;1032.8;;;21.5;18.2
57374;BME280;43964;53.890;25.340;2023-05-11T10:32:04;1032.8;;;21.5;18.3
57374;BME280;43964;53.890;25.340;2023-05-11T10:36:34;1032.8;;;21.4;18.4
57374;BME280;43964;53.890;25.340;2023-05-11T10:41:46;1032.7;;;21.5;18.5
57374;BME280;43964;53.890;25.340;2023-05-11T10:46:51;1032.6;;;21.6;18.4
57374;BME280;43964;53.890;25.340;2023-05-11T10:51:28;1032.6;;;21.5;18.4
57374;BME280;43964;53.890;25.340;2023-05-11T10:57:17;1032.6;;;21.3;18.3
57374;BME280;43964;53.890;25.340;2023-05-11T11:01:48;1032.6;;;21.1;18.5
57374;BME280;43964;53.890;25.340;2023-05-11T11:06:37;1032.6;;;21.2;18.5
57374;BME280;43964;53.890;25.340;2023-05-11T11:11:48;1032.6;;;21.4;18.5
57374;BME280;43964;53.890;25.340;2023-05-11T11:17:21;1032.5;;;21.6;18.5
57374;BME280;43964;53.890;25.340;2023-05-11T11:21:43;1032.5;;;21.8;18.5
57374;BME280;43964;53.890;25.340;2023-05-11T11:26:44;1032.4;;;21.8;18.4
57374;BME280;43964;53.890;25.340;2023-05-11T11:31:25;1032.4;;;21.8;18.4
57374;BME280;43964;53.890;25.340;2023-05-11T11:37:05;1032.3;;;21.9;18.5
57374;BME280;43964;53.890;25.340;2023-05-11T11:41:42;1032.3;;;22;18.4
57374;BME280;43964;53.890;25.340;2023-05-11T11:46:25;1032.4;;;21.9;18.4
57374;BME280;43964;53.890;25.340;2023-05-11T11:52:04;1032.4;;;21.8;18.4
57374;BME280;43964;53.890;25.340;2023-05-11T11:56:48;1032.4;;;21.8;18.4
57374;BME280;43964;53.890;25.340;2023-05-11T12:01:35;1032.2;;;22;18.5
57374;BME280;43964;53.890;25.340;2023-05-11T12:06:46;1032.2;;;22.1;18.3
57374;BME280;43964;53.890;25.340;2023-05-11T12:12:07;1032.1;;;22.2;18.4
57374;BME280;43964;53.890;25.340;2023-05-11T12:17:04;1032.1;;;22.2;18.3
57374;BME280;43964;53.890;25.340;2023-05-11T12:21:40;1032.2;;;22;18.1
57374;BME280;43964;53.890;25.340;2023-05-11T12:26:59;1032.2;;;21.9;18.2
57374;BME280;43964;53.890;25.340;2023-05-11T12:31:54;1032.2;;;21.9;18.1
57374;BME280;43964;53.890;25.340;2023-05-11T12:36:44;1032.2;;;21.9;18.2
57374;BME280;43964;53.890;25.340;2023-05-11T12:41:54;1032.2;;;21.7;18.2
57374;BME280;43964;53.890;25.340;2023-05-11T12:47:06;1032.2;;;21.5;18.3
57374;BME280;43964;53.890;25.340;2023-05-11T12:52:04;1032.1;;;21.7;18.3
57374;BME280;43964;53.890;25.340;2023-05-11T12:56:24;1032.1;;;21.9;18.1
57374;BME280;43964;53.890;25.340;2023-05-11T13:02:05;1032;;;21.9;18.1
57374;BME280;43964;53.890;25.340;2023-05-11T13:06:58;1031.9;;;21.9;18.2
57374;BME280;43964;53.890;25.340;2023-05-11T13:11:25;1031.9;;;22.1;18.3
57374;BME280;43964;53.890;25.340;2023-05-11T13:16:36;1031.9;;;22.1;18.4
57374;BME280;43964;53.890;25.340;2023-05-11T13:22:02;1031.8;;;22;18.5
57374;BME280;43964;53.890;25.340;2023-05-11T13:26:24;1031.8;;;22;18.5
57374;BME280;43964;53.890;25.340;2023-05-11T13:31:56;1031.8;;;22;18.6
57374;BME280;43964;53.890;25.340;2023-05-11T13:37:06;1031.8;;;22;18.7
57374;BME280;43964;53.890;25.340;2023-05-11T13:41:32;1031.8;;;21.9;18.7
57374;BME280;43964;53.890;25.340;2023-05-11T13:46:42;1031.8;;;21.8;18.7
57374;BME280;43964;53.890;25.340;2023-05-11T13:51:24;1031.7;;;21.8;18.8
57374;BME280;43964;53.890;25.340;2023-05-11T13:56:50;1031.7;;;21.8;18.9
57374;BME280;43964;53.890;25.340;2023-05-11T14:01:58;1031.7;;;21.7;18.9
57374;BME280;43964;53.890;25.340;2023-05-11T14:06:48;1031.7;;;21.6;18.7
57374;BME280;43964;53.890;25.340;2023-05-11T14:11:24;1031.6;;;21.5;18.7
57374;BME280;43964;53.890;25.340;2023-05-11T14:16:48;1031.7;;;21.4;18.7
57374;BME280;43964;53.890;25.340;2023-05-11T14:22:04;1031.7;;;21.1;18.8
57374;BME280;43964;53.890;25.340;2023-05-11T14:26:28;1031.6;;;21.3;18.9
57374;BME280;43964;53.890;25.340;2023-05-11T14:31:34;1031.6;;;21.4;18.9
57374;BME280;43964;53.890;25.340;2023-05-11T14:36:32;1031.7;;;21.5;19
57374;BME280;43964;53.890;25.340;2023-05-11T14:42:04;1031.7;;;21.3;19
57374;BME280;43964;53.890;25.340;2023-05-11T14:46:32;1031.6;;;21.2;19
57374;BME280;43964;53.890;25.340;2023-05-11T14:51:40;1031.5;;;21.2;19
57374;BME280;43964;53.890;25.340;2023-05-11T14:57:08;1031.6;;;21.1;19.2
57374;BME280;43964;53.890;25.340;2023-05-11T15:01:49;1031.5;;;21;19.2
57374;BME280;43964;53.890;25.340;2023-05-11T15:06:34;1031.5;;;21;19.4
57374;BME280;43964;53.890;25.340;2023-05-11T15:11:38;1031.6;;;20.9;19.5
57374;BME280;43964;53.890;25.340;2023-05-11T15:17:06;1031.6;;;20.9;19.5
57374;BME280;43964;53.890;25.340;2023-05-11T15:21:24;1031.6;;;20.9;19.5
57374;BME280;43964;53.890;25.340;2023-05-11T15:27:08;1031.6;;;20.9;19.4
57374;BME280;43964;53.890;25.340;2023-05-11T15:32:04;1031.6;;;20.8;19.4
57374;BME280;43964;53.890;25.340;2023-05-11T15:36:32;1031.6;;;20.7;19.5
57374;BME280;43964;53.890;25.340;2023-05-11T15:41:44;1031.6;;;20.7;19.5
57374;BME280;43964;53.890;25.340;2023-05-11T15:46:54;1031.6;;;20.6;19.5
57374;BME280;43964;53.890;25.340;2023-05-11T15:51:40;1031.6;;;20.6;19.5
57374;BME280;43964;53.890;25.340;2023-05-11T15:57:00;1031.6;;;20.6;19.5
57374;BME280;43964;53.890;25.340;2023-05-11T16:01:24;1031.6;;;20.6;19.5
57374;BME280;43964;53.890;25.340;2023-05-11T16:07:06;1031.6;;;20.5;19.7
57374;BME280;43964;53.890;25.340;2023-05-11T16:11:58;1031.6;;;20.3;19.8
57374;BME280;43964;53.890;25.340;2023-05-11T16:16:25;1031.6;;;20.3;19.9
57374;BME280;43964;53.890;25.340;2023-05-11T16:21:40;1031.6;;;20.3;19.9
57374;BME280;43964;53.890;25.340;2023-05-11T16:27:08;1031.6;;;20.2;19.9
57374;BME280;43964;53.890;25.340;2023-05-11T16:31:24;1031.6;;;20.1;20.2
57374;BME280;43964;53.890;25.340;2023-05-11T16:37:06;1031.6;;;20.1;20.3
57374;BME280;43964;53.890;25.340;2023-05-11T16:42:06;1031.6;;;20;20.4
57374;BME280;43964;53.890;25.340;2023-05-11T16:46:34;1031.6;;;19.9;20.5
57374;BME280;43964;53.890;25.340;2023-05-11T16:51:24;1031.6;;;19.8;20.6
57374;BME280;43964;53.890;25.340;2023-05-11T16:56:24;1031.6;;;19.6;20.7
57374;BME280;43964;53.890;25.340;2023-05-11T17:01:32;1031.6;;;19.5;20.8
57374;BME280;43964;53.890;25.340;2023-05-11T17:07:00;1031.6;;;19.4;20.9
57374;BME280;43964;53.890;25.340;2023-05-11T17:11:48;1031.6;;;19.3;21
57374;BME280;43964;53.890;25.340;2023-05-11T17:16:36;1031.7;;;19.2;21.1
57374;BME280;43964;53.890;25.340;2023-05-11T17:21:48;1031.6;;;19;21.3
57374;BME280;43964;53.890;25.340;2023-05-11T17:27:06;1031.6;;;18.9;21.7
57374;BME280;43964;53.890;25.340;2023-05-11T17:31:38;1031.7;;;18.8;21.9
57374;BME280;43964;53.890;25.340;2023-05-11T17:36:34;1031.7;;;18.7;22.1
57374;BME280;43964;53.890;25.340;2023-05-11T17:41:34;1031.8;;;18.6;22.4
57374;BME280;43964;53.890;25.340;2023-05-11T17:47:06;1031.8;;;18.5;22.6
57374;BME280;43964;53.890;25.340;2023-05-11T17:51:34;1031.8;;;18.4;22.7
57374;BME280;43964;53.890;25.340;2023-05-11T17:57:06;1031.9;;;18.1;23.2
57374;BME280;43964;53.890;25.340;2023-05-11T18:02:08;1032;;;17.8;23.6
57374;BME280;43964;53.890;25.340;2023-05-11T18:06:48;1032;;;17.5;23.8
57374;BME280;43964;53.890;25.340;2023-05-11T18:11:34;1032;;;17;24.8
57374;BME280;43964;53.890;25.340;2023-05-11T18:16:24;1032;;;16.6;25.3
57374;BME280;43964;53.890;25.340;2023-05-11T18:22:08;1032.1;;;16.3;25.4
57374;BME280;43964;53.890;25.340;2023-05-11T18:26:38;1032.1;;;16.1;25.5
57374;BME280;43964;53.890;25.340;2023-05-11T18:31:27;1032.2;;;15.9;25.8
57374;BME280;43964;53.890;25.340;2023-05-11T18:37:06;1032.2;;;15.6;26.2
57374;BME280;43964;53.890;25.340;2023-05-11T18:41:24;1032.3;;;15.3;26.6
57374;BME280;43964;53.890;25.340;2023-05-11T18:46:44;1032.3;;;15.1;26.8
57374;BME280;43964;53.890;25.340;2023-05-11T18:51:54;1032.3;;;15;27.6
57374;BME280;43964;53.890;25.340;2023-05-11T18:57:06;1032.4;;;14.8;28.4
57374;BME280;43964;53.890;25.340;2023-05-11T19:02:00;1032.4;;;14.6;28.9
57374;BME280;43964;53.890;25.340;2023-05-11T19:06:46;1032.4;;;14.5;29.2
57374;BME280;43964;53.890;25.340;2023-05-11T19:12:07;1032.5;;;14.3;29.6
57374;BME280;43964;53.890;25.340;2023-05-11T19:16:50;1032.5;;;14.1;30
57374;BME280;43964;53.890;25.340;2023-05-11T19:21:24;1032.6;;;13.9;30.1
57374;BME280;43964;53.890;25.340;2023-05-11T19:27:06;1032.6;;;13.7;30.3
57374;BME280;43964;53.890;25.340;2023-05-11T19:32:08;1032.6;;;13.5;30.6
57374;BME280;43964;53.890;25.340;2023-05-11T19:36:34;1032.6;;;13.4;30.8
57374;BME280;43964;53.890;25.340;2023-05-11T19:41:56;1032.7;;;13.3;31.1
57374;BME280;43964;53.890;25.340;2023-05-11T19:46:56;1032.7;;;13.2;31.6
57374;BME280;43964;53.890;25.340;2023-05-11T19:51:32;1032.7;;;13;32.5
57374;BME280;43964;53.890;25.340;2023-05-11T20:01:48;1032.7;;;12.9;33.3
57374;BME280;43964;53.890;25.340;2023-05-11T20:06:24;1032.7;;;12.8;33.7
57374;BME280;43964;53.890;25.340;2023-05-11T20:12:00;1032.7;;;12.7;33.9
57374;BME280;43964;53.890;25.340;2023-05-11T20:16:48;1032.8;;;12.7;33.9
57374;BME280;43964;53.890;25.340;2023-05-11T20:21:28;1032.8;;;12.6;33.8
57374;BME280;43964;53.890;25.340;2023-05-11T20:26:50;1032.8;;;12.5;34
57374;BME280;43964;53.890;25.340;2023-05-11T20:32:06;1032.9;;;12.4;34.1
57374;BME280;43964;53.890;25.340;2023-05-11T20:36:50;1032.9;;;12.4;34.1
57374;BME280;43964;53.890;25.340;2023-05-11T20:41:44;1032.9;;;12.4;34.2
57374;BME280;43964;53.890;25.340;2023-05-11T20:46:24;1032.9;;;12.3;34.9
57374;BME280;43964;53.890;25.340;2023-05-11T20:52:06;1032.9;;;12.3;35.3
57374;BME280;43964;53.890;25.340;2023-05-11T20:56:44;1033;;;12.2;35.6
57374;BME280;43964;53.890;25.340;2023-05-11T21:01:34;1033;;;12.1;36
57374;BME280;43964;53.890;25.340;2023-05-11T21:07:06;1033;;;12;36.3
57374;BME280;43964;53.890;25.340;2023-05-11T21:11:24;1033;;;12;36.3
57374;BME280;43964;53.890;25.340;2023-05-11T21:16:28;1033.1;;;11.9;36
57374;BME280;43964;53.890;25.340;2023-05-11T21:21:34;1033.1;;;11.7;36.3
57374;BME280;43964;53.890;25.340;2023-05-11T21:27:06;1033.1;;;11.6;36.5
57374;BME280;43964;53.890;25.340;2023-05-11T21:31:24;1033.1;;;11.5;36.7
57374;BME280;43964;53.890;25.340;2023-05-11T21:37:06;1033.2;;;11.4;37.3
57374;BME280;43964;53.890;25.340;2023-05-11T21:42:04;1033.2;;;11.4;37.9
57374;BME280;43964;53.890;25.340;2023-05-11T21:46:24;1033.2;;;11.3;38.3
57374;BME280;43964;53.890;25.340;2023-05-11T21:51:47;1033.3;;;11.2;38.6
57374;BME280;43964;53.890;25.340;2023-05-11T21:56:56;1033.3;;;11.2;38.9
57374;BME280;43964;53.890;25.340;2023-05-11T22:01:53;1033.3;;;11.2;39
57374;BME280;43964;53.890;25.340;2023-05-11T22:07:02;1033.4;;;11.1;39.2
57374;BME280;43964;53.890;25.340;2023-05-11T22:11:24;1033.4;;;11.1;39.2
57374;BME280;43964;53.890;25.340;2023-05-11T22:17:10;1033.5;;;11;39.3
57374;BME280;43964;53.890;25.340;2023-05-11T22:21:52;1033.5;;;10.9;39.3
57374;BME280;43964;53.890;25.340;2023-05-11T22:26:24;1033.6;;;10.9;39.2
57374;BME280;43964;53.890;25.340;2023-05-11T22:31:40;1033.6;;;10.8;39.3
57374;BME280;43964;53.890;25.340;2023-05-11T22:37:08;1033.6;;;10.8;39.9
57374;BME280;43964;53.890;25.340;2023-05-11T22:41:36;1033.7;;;10.7;40.6
57374;BME280;43964;53.890;25.340;2023-05-11T22:46:56;1033.7;;;10.6;41
57374;BME280;43964;53.890;25.340;2023-05-11T22:51:56;1033.8;;;10.5;41.3
57374;BME280;43964;53.890;25.340;2023-05-11T22:56:34;1033.8;;;10.5;41.5
57374;BME280;43964;53.890;25.340;2023-05-11T23:01:52;1033.8;;;10.3;41.5
57374;BME280;43964;53.890;25.340;2023-05-11T23:06:50;1033.9;;;10.2;41.7
57374;BME280;43964;53.890;25.340;2023-05-11T23:11:36;1033.8;;;10.2;41.6
57374;BME280;43964;53.890;25.340;2023-05-11T23:17:02;1033.8;;;10.2;41.6
57374;BME280;43964;53.890;25.340;2023-05-11T23:22:06;1033.8;;;10.1;41.5
57374;BME280;43964;53.890;25.340;2023-05-11T23:26:24;1033.8;;;10.1;41.3
57374;BME280;43964;53.890;25.340;2023-05-11T23:31:52;1033.8;;;10.1;41.5
57374;BME280;43964;53.890;25.340;2023-05-11T23:37:02;1033.8;;;10;42.2
57374;BME280;43964;53.890;25.340;2023-05-11T23:41:56;1033.9;;;9.9;42.5
57374;BME280;43964;53.890;25.340;2023-05-11T23:47:06;1033.8;;;9.8;42.8
57374;BME280;43964;53.890;25.340;2023-05-11T23:51:56;1033.8;;;9.8;42.9
57374;BME280;43964;53.890;25.340;2023-05-11T23:57:08;1033.8;;;9.8;43.2
